sensor_id;sensor_type;location;lat;lon;timestamp;P1;P2;P0
76679;PMS5003;65597;51.520;-0.224;2023-05-10T00:00:23;7;6;
76679;PMS5003;65597;51.520;-0.224;2023-05-10T00:02:49;8;7;
76679;PMS5003;65597;51.520;-0.224;2023-05-10T00:05:14;9;7;
76679;PMS5003;65597;51.520;-0.224;2023-05-10T00:07:39;5;5;
76679;PMS5003;65597;51.520;-0.224;2023-05-10T00:10:05;7;6;
76679;PMS5003;65597;51.520;-0.224;2023-05-10T00:12:30;6;5;
76679;PMS5003;65597;51.520;-0.224;2023-05-10T00:14:56;7;6;
76679;PMS5003;65597;51.520;-0.224;2023-05-10T00:17:21;6;6;
76679;PMS5003;65597;51.520;-0.224;2023-05-10T00:19:46;7;7;
76679;PMS5003;65597;51.520;-0.224;2023-05-10T00:22:12;7;7;
76679;PMS5003;65597;51.520;-0.224;2023-05-10T00:24:37;6;6;
76679;PMS5003;65597;51.520;-0.224;2023-05-10T00:27:03;7;7;
76679;PMS5003;65597;51.520;-0.224;2023-05-10T00:29:28;7;7;
76679;PMS5003;65597;51.520;-0.224;2023-05-10T00:31:53;7;7;
76679;PMS5003;65597;51.520;-0.224;2023-05-10T00:34:19;11;9;
76679;PMS5003;65597;51.520;-0.224;2023-05-10T00:36:44;8;8;
76679;PMS5003;65597;51.520;-0.224;2023-05-10T00:39:09;9;9;
76679;PMS5003;65597;51.520;-0.224;2023-05-10T00:41:34;14;10;
76679;PMS5003;65597;51.520;-0.224;2023-05-10T00:44:00;8;8;
76679;PMS5003;65597;51.520;-0.224;2023-05-10T00:46:26;7;7;
76679;PMS5003;65597;51.520;-0.224;2023-05-10T00:48:51;8;8;
76679;PMS5003;65597;51.520;-0.224;2023-05-10T00:51:16;10;9;
76679;PMS5003;65597;51.520;-0.224;2023-05-10T00:53:42;8;8;
76679;PMS5003;65597;51.520;-0.224;2023-05-10T00:56:07;10;9;
76679;PMS5003;65597;51.520;-0.224;2023-05-10T00:58:32;9;9;
76679;PMS5003;65597;51.520;-0.224;2023-05-10T01:00:58;10;10;
76679;PMS5003;65597;51.520;-0.224;2023-05-10T01:03:24;9;9;
76679;PMS5003;65597;51.520;-0.224;2023-05-10T01:05:49;8;6;
76679;PMS5003;65597;51.520;-0.224;2023-05-10T01:08:14;10;9;
76679;PMS5003;65597;51.520;-0.224;2023-05-10T01:10:40;8;8;
76679;PMS5003;65597;51.520;-0.224;2023-05-10T01:13:05;9;9;
76679;PMS5003;65597;51.520;-0.224;2023-05-10T01:15:32;9;9;
76679;PMS5003;65597;51.520;-0.224;2023-05-10T01:17:56;8;8;
76679;PMS5003;65597;51.520;-0.224;2023-05-10T01:20:21;10;10;
76679;PMS5003;65597;51.520;-0.224;2023-05-10T01:22:52;10;10;
76679;PMS5003;65597;51.520;-0.224;2023-05-10T01:30:08;7;7;
76679;PMS5003;65597;51.520;-0.224;2023-05-10T01:32:30;7;7;
76679;PMS5003;65597;51.520;-0.224;2023-05-10T01:34:55;8;8;
76679;PMS5003;65597;51.520;-0.224;2023-05-10T01:37:20;10;10;
76679;PMS5003;65597;51.520;-0.224;2023-05-10T01:39:47;7;7;
76679;PMS5003;65597;51.520;-0.224;2023-05-10T01:42:11;8;8;
76679;PMS5003;65597;51.520;-0.224;2023-05-10T01:44:37;7;7;
76679;PMS5003;65597;51.520;-0.224;2023-05-10T01:47:02;8;8;
76679;PMS5003;65597;51.520;-0.224;2023-05-10T01:49:29;9;8;
76679;PMS5003;65597;51.520;-0.224;2023-05-10T01:51:53;7;6;
76679;PMS5003;65597;51.520;-0.224;2023-05-10T01:54:17;7;7;
76679;PMS5003;65597;51.520;-0.224;2023-05-10T01:56:42;7;6;
76679;PMS5003;65597;51.520;-0.224;2023-05-10T01:59:08;10;10;
76679;PMS5003;65597;51.520;-0.224;2023-05-10T02:01:33;8;7;
76679;PMS5003;65597;51.520;-0.224;2023-05-10T02:03:58;9;8;
76679;PMS5003;65597;51.520;-0.224;2023-05-10T02:06:23;9;7;
76679;PMS5003;65597;51.520;-0.224;2023-05-10T02:08:49;9;9;
76679;PMS5003;65597;51.520;-0.224;2023-05-10T02:11:14;7;6;
76679;PMS5003;65597;51.520;-0.224;2023-05-10T02:13:39;9;7;
76679;PMS5003;65597;51.520;-0.224;2023-05-10T02:16:06;5;5;
76679;PMS5003;65597;51.520;-0.224;2023-05-10T02:18:30;8;8;
76679;PMS5003;65597;51.520;-0.224;2023-05-10T02:20:55;10;9;
76679;PMS5003;65597;51.520;-0.224;2023-05-10T02:23:21;8;8;
76679;PMS5003;65597;51.520;-0.224;2023-05-10T02:25:46;6;6;
76679;PMS5003;65597;51.520;-0.224;2023-05-10T02:28:12;8;7;
76679;PMS5003;65597;51.520;-0.224;2023-05-10T02:30:37;7;7;
76679;PMS5003;65597;51.520;-0.224;2023-05-10T02:33:02;7;7;
76679;PMS5003;65597;51.520;-0.224;2023-05-10T02:35:27;7;7;
76679;PMS5003;65597;51.520;-0.224;2023-05-10T02:37:53;9;8;
76679;PMS5003;65597;51.520;-0.224;2023-05-10T02:40:18;8;7;
76679;PMS5003;65597;51.520;-0.224;2023-05-10T02:42:44;6;6;
76679;PMS5003;65597;51.520;-0.224;2023-05-10T02:45:11;8;7;
76679;PMS5003;65597;51.520;-0.224;2023-05-10T02:47:34;7;6;
76679;PMS5003;65597;51.520;-0.224;2023-05-10T02:50:00;7;7;
76679;PMS5003;65597;51.520;-0.224;2023-05-10T02:52:26;7;7;
76679;PMS5003;65597;51.520;-0.224;2023-05-10T02:54:52;6;6;
76679;PMS5003;65597;51.520;-0.224;2023-05-10T02:57:16;6;6;
76679;PMS5003;65597;51.520;-0.224;2023-05-10T02:59:41;7;7;
76679;PMS5003;65597;51.520;-0.224;2023-05-10T03:02:07;7;6;
76679;PMS5003;65597;51.520;-0.224;2023-05-10T03:04:33;8;8;
76679;PMS5003;65597;51.520;-0.224;2023-05-10T03:06:57;7;7;
76679;PMS5003;65597;51.520;-0.224;2023-05-10T03:09:23;7;7;
76679;PMS5003;65597;51.520;-0.224;2023-05-10T03:11:50;9;8;
76679;PMS5003;65597;51.520;-0.224;2023-05-10T03:14:16;8;7;
76679;PMS5003;65597;51.520;-0.224;2023-05-10T03:16:41;8;8;
76679;PMS5003;65597;51.520;-0.224;2023-05-10T03:19:06;7;7;
76679;PMS5003;65597;51.520;-0.224;2023-05-10T03:21:29;6;6;
76679;PMS5003;65597;51.520;-0.224;2023-05-10T03:23:57;7;7;
76679;PMS5003;65597;51.520;-0.224;2023-05-10T03:26:22;8;7;
76679;PMS5003;65597;51.520;-0.224;2023-05-10T03:28:47;8;8;
76679;PMS5003;65597;51.520;-0.224;2023-05-10T03:31:11;8;8;
76679;PMS5003;65597;51.520;-0.224;2023-05-10T03:36:02;7;7;
76679;PMS5003;65597;51.520;-0.224;2023-05-10T03:38:27;7;7;
76679;PMS5003;65597;51.520;-0.224;2023-05-10T03:40:55;6;6;
76679;PMS5003;65597;51.520;-0.224;2023-05-10T03:43:18;9;9;
76679;PMS5003;65597;51.520;-0.224;2023-05-10T03:45:43;8;8;
76679;PMS5003;65597;51.520;-0.224;2023-05-10T03:48:08;9;7;
76679;PMS5003;65597;51.520;-0.224;2023-05-10T03:50:34;7;7;
76679;PMS5003;65597;51.520;-0.224;2023-05-10T03:53:01;8;8;
76679;PMS5003;65597;51.520;-0.224;2023-05-10T03:55:25;7;6;
76679;PMS5003;65597;51.520;-0.224;2023-05-10T03:57:50;9;9;
76679;PMS5003;65597;51.520;-0.224;2023-05-10T04:00:16;8;8;
76679;PMS5003;65597;51.520;-0.224;2023-05-10T04:02:41;7;7;
76679;PMS5003;65597;51.520;-0.224;2023-05-10T04:05:07;9;8;
76679;PMS5003;65597;51.520;-0.224;2023-05-10T04:07:32;7;7;
76679;PMS5003;65597;51.520;-0.224;2023-05-10T04:09:57;8;8;
76679;PMS5003;65597;51.520;-0.224;2023-05-10T04:12:22;6;6;
76679;PMS5003;65597;51.520;-0.224;2023-05-10T04:14:48;7;6;
76679;PMS5003;65597;51.520;-0.224;2023-05-10T04:17:13;8;7;
76679;PMS5003;65597;51.520;-0.224;2023-05-10T04:19:39;8;8;
76679;PMS5003;65597;51.520;-0.224;2023-05-10T04:22:04;9;8;
76679;PMS5003;65597;51.520;-0.224;2023-05-10T04:24:29;8;8;
76679;PMS5003;65597;51.520;-0.224;2023-05-10T04:26:56;7;6;
76679;PMS5003;65597;51.520;-0.224;2023-05-10T04:29:22;7;7;
76679;PMS5003;65597;51.520;-0.224;2023-05-10T04:31:46;9;8;
76679;PMS5003;65597;51.520;-0.224;2023-05-10T04:34:11;9;7;
76679;PMS5003;65597;51.520;-0.224;2023-05-10T04:36:36;12;9;
76679;PMS5003;65597;51.520;-0.224;2023-05-10T04:39:02;11;10;
76679;PMS5003;65597;51.520;-0.224;2023-05-10T04:41:27;10;10;
76679;PMS5003;65597;51.520;-0.224;2023-05-10T04:43:52;9;9;
76679;PMS5003;65597;51.520;-0.224;2023-05-10T04:46:18;7;7;
76679;PMS5003;65597;51.520;-0.224;2023-05-10T04:48:43;10;10;
76679;PMS5003;65597;51.520;-0.224;2023-05-10T04:51:08;9;9;
76679;PMS5003;65597;51.520;-0.224;2023-05-10T04:53:35;8;8;
76679;PMS5003;65597;51.520;-0.224;2023-05-10T04:55:59;7;7;
76679;PMS5003;65597;51.520;-0.224;2023-05-10T04:58:24;11;9;
76679;PMS5003;65597;51.520;-0.224;2023-05-10T05:00:49;11;11;
76679;PMS5003;65597;51.520;-0.224;2023-05-10T05:03:15;10;8;
76679;PMS5003;65597;51.520;-0.224;2023-05-10T05:05:40;10;9;
76679;PMS5003;65597;51.520;-0.224;2023-05-10T05:08:05;12;12;
76679;PMS5003;65597;51.520;-0.224;2023-05-10T05:10:30;16;14;
76679;PMS5003;65597;51.520;-0.224;2023-05-10T05:12:55;15;12;
76679;PMS5003;65597;51.520;-0.224;2023-05-10T05:15:26;15;15;
76679;PMS5003;65597;51.520;-0.224;2023-05-10T05:17:48;12;12;
76679;PMS5003;65597;51.520;-0.224;2023-05-10T05:20:11;13;12;
76679;PMS5003;65597;51.520;-0.224;2023-05-10T05:22:37;19;18;
76679;PMS5003;65597;51.520;-0.224;2023-05-10T05:25:03;18;18;
76679;PMS5003;65597;51.520;-0.224;2023-05-10T05:27:27;19;18;
76679;PMS5003;65597;51.520;-0.224;2023-05-10T05:29:54;14;14;
76679;PMS5003;65597;51.520;-0.224;2023-05-10T05:32:18;21;18;
76679;PMS5003;65597;51.520;-0.224;2023-05-10T05:34:44;13;13;
76679;PMS5003;65597;51.520;-0.224;2023-05-10T05:37:12;16;15;
76679;PMS5003;65597;51.520;-0.224;2023-05-10T05:39:35;18;17;
76679;PMS5003;65597;51.520;-0.224;2023-05-10T05:42:00;14;13;
76679;PMS5003;65597;51.520;-0.224;2023-05-10T05:44:25;14;14;
76679;PMS5003;65597;51.520;-0.224;2023-05-10T05:46:51;19;17;
76679;PMS5003;65597;51.520;-0.224;2023-05-10T05:49:16;19;19;
76679;PMS5003;65597;51.520;-0.224;2023-05-10T05:51:41;11;11;
76679;PMS5003;65597;51.520;-0.224;2023-05-10T05:54:06;17;14;
76679;PMS5003;65597;51.520;-0.224;2023-05-10T05:56:32;19;17;
76679;PMS5003;65597;51.520;-0.224;2023-05-10T05:58:57;14;13;
76679;PMS5003;65597;51.520;-0.224;2023-05-10T06:01:22;17;16;
76679;PMS5003;65597;51.520;-0.224;2023-05-10T06:03:48;12;12;
76679;PMS5003;65597;51.520;-0.224;2023-05-10T06:06:14;18;15;
76679;PMS5003;65597;51.520;-0.224;2023-05-10T06:08:38;14;10;
76679;PMS5003;65597;51.520;-0.224;2023-05-10T06:11:03;15;14;
76679;PMS5003;65597;51.520;-0.224;2023-05-10T06:13:29;14;13;
76679;PMS5003;65597;51.520;-0.224;2023-05-10T06:15:54;16;15;
76679;PMS5003;65597;51.520;-0.224;2023-05-10T06:18:21;20;15;
76679;PMS5003;65597;51.520;-0.224;2023-05-10T06:20:45;18;16;
76679;PMS5003;65597;51.520;-0.224;2023-05-10T06:23:10;21;21;
76679;PMS5003;65597;51.520;-0.224;2023-05-10T06:25:36;19;18;
76679;PMS5003;65597;51.520;-0.224;2023-05-10T06:28:02;18;16;
76679;PMS5003;65597;51.520;-0.224;2023-05-10T06:30:28;12;12;
76679;PMS5003;65597;51.520;-0.224;2023-05-10T06:32:52;16;14;
76679;PMS5003;65597;51.520;-0.224;2023-05-10T06:35:18;14;13;
76679;PMS5003;65597;51.520;-0.224;2023-05-10T06:37:43;17;15;
76679;PMS5003;65597;51.520;-0.224;2023-05-10T06:40:09;15;14;
76679;PMS5003;65597;51.520;-0.224;2023-05-10T06:42:35;15;14;
76679;PMS5003;65597;51.520;-0.224;2023-05-10T06:45:00;15;14;
76679;PMS5003;65597;51.520;-0.224;2023-05-10T06:47:25;15;14;
76679;PMS5003;65597;51.520;-0.224;2023-05-10T06:49:51;12;12;
76679;PMS5003;65597;51.520;-0.224;2023-05-10T06:52:16;12;11;
76679;PMS5003;65597;51.520;-0.224;2023-05-10T06:54:42;15;14;
76679;PMS5003;65597;51.520;-0.224;2023-05-10T06:57:07;16;14;
76679;PMS5003;65597;51.520;-0.224;2023-05-10T06:59:33;18;16;
76679;PMS5003;65597;51.520;-0.224;2023-05-10T07:01:58;17;15;
76679;PMS5003;65597;51.520;-0.224;2023-05-10T07:04:24;14;13;
76679;PMS5003;65597;51.520;-0.224;2023-05-10T07:06:49;14;11;
76679;PMS5003;65597;51.520;-0.224;2023-05-10T07:09:14;14;12;
76679;PMS5003;65597;51.520;-0.224;2023-05-10T07:11:39;14;12;
76679;PMS5003;65597;51.520;-0.224;2023-05-10T07:14:10;12;12;
76679;PMS5003;65597;51.520;-0.224;2023-05-10T07:16:30;16;13;
76679;PMS5003;65597;51.520;-0.224;2023-05-10T07:18:55;10;9;
76679;PMS5003;65597;51.520;-0.224;2023-05-10T07:21:21;12;11;
76679;PMS5003;65597;51.520;-0.224;2023-05-10T07:23:46;13;11;
76679;PMS5003;65597;51.520;-0.224;2023-05-10T07:26:12;12;11;
76679;PMS5003;65597;51.520;-0.224;2023-05-10T07:28:36;10;10;
76679;PMS5003;65597;51.520;-0.224;2023-05-10T07:31:04;12;12;
76679;PMS5003;65597;51.520;-0.224;2023-05-10T07:33:27;16;11;
76679;PMS5003;65597;51.520;-0.224;2023-05-10T07:35:52;8;8;
76679;PMS5003;65597;51.520;-0.224;2023-05-10T07:38:17;8;8;
76679;PMS5003;65597;51.520;-0.224;2023-05-10T07:40:43;8;8;
76679;PMS5003;65597;51.520;-0.224;2023-05-10T07:43:08;11;8;
76679;PMS5003;65597;51.520;-0.224;2023-05-10T07:45:33;9;8;
76679;PMS5003;65597;51.520;-0.224;2023-05-10T07:47:59;11;7;
76679;PMS5003;65597;51.520;-0.224;2023-05-10T07:50:24;8;7;
76679;PMS5003;65597;51.520;-0.224;2023-05-10T07:52:49;11;9;
76679;PMS5003;65597;51.520;-0.224;2023-05-10T07:55:15;8;8;
76679;PMS5003;65597;51.520;-0.224;2023-05-10T07:57:41;12;10;
76679;PMS5003;65597;51.520;-0.224;2023-05-10T08:00:07;12;10;
76679;PMS5003;65597;51.520;-0.224;2023-05-10T08:02:31;15;13;
76679;PMS5003;65597;51.520;-0.224;2023-05-10T08:04:56;13;9;
76679;PMS5003;65597;51.520;-0.224;2023-05-10T08:07:21;16;13;
76679;PMS5003;65597;51.520;-0.224;2023-05-10T08:09:47;11;10;
76679;PMS5003;65597;51.520;-0.224;2023-05-10T08:12:12;11;10;
76679;PMS5003;65597;51.520;-0.224;2023-05-10T08:14:38;11;10;
76679;PMS5003;65597;51.520;-0.224;2023-05-10T08:17:03;9;7;
76679;PMS5003;65597;51.520;-0.224;2023-05-10T08:19:29;13;10;
76679;PMS5003;65597;51.520;-0.224;2023-05-10T08:21:54;9;9;
76679;PMS5003;65597;51.520;-0.224;2023-05-10T08:24:19;12;11;
76679;PMS5003;65597;51.520;-0.224;2023-05-10T08:26:45;10;9;
76679;PMS5003;65597;51.520;-0.224;2023-05-10T08:29:10;15;12;
76679;PMS5003;65597;51.520;-0.224;2023-05-10T08:31:36;9;8;
76679;PMS5003;65597;51.520;-0.224;2023-05-10T08:34:01;11;9;
76679;PMS5003;65597;51.520;-0.224;2023-05-10T08:36:26;13;12;
76679;PMS5003;65597;51.520;-0.224;2023-05-10T08:38:52;9;9;
76679;PMS5003;65597;51.520;-0.224;2023-05-10T08:41:22;12;11;
76679;PMS5003;65597;51.520;-0.224;2023-05-10T08:43:43;11;11;
76679;PMS5003;65597;51.520;-0.224;2023-05-10T08:46:08;11;11;
76679;PMS5003;65597;51.520;-0.224;2023-05-10T08:48:33;20;11;
76679;PMS5003;65597;51.520;-0.224;2023-05-10T08:50:58;14;12;
76679;PMS5003;65597;51.520;-0.224;2023-05-10T08:53:23;13;12;
76679;PMS5003;65597;51.520;-0.224;2023-05-10T08:55:49;17;14;
76679;PMS5003;65597;51.520;-0.224;2023-05-10T08:58:14;13;11;
76679;PMS5003;65597;51.520;-0.224;2023-05-10T09:00:40;11;10;
76679;PMS5003;65597;51.520;-0.224;2023-05-10T09:03:05;10;8;
76679;PMS5003;65597;51.520;-0.224;2023-05-10T09:05:31;9;9;
76679;PMS5003;65597;51.520;-0.224;2023-05-10T09:07:56;11;10;
76679;PMS5003;65597;51.520;-0.224;2023-05-10T09:10:21;11;11;
76679;PMS5003;65597;51.520;-0.224;2023-05-10T09:12:47;11;11;
76679;PMS5003;65597;51.520;-0.224;2023-05-10T09:15:13;13;11;
76679;PMS5003;65597;51.520;-0.224;2023-05-10T09:17:37;12;10;
76679;PMS5003;65597;51.520;-0.224;2023-05-10T09:20:04;12;10;
76679;PMS5003;65597;51.520;-0.224;2023-05-10T09:22:28;9;9;
76679;PMS5003;65597;51.520;-0.224;2023-05-10T09:29:44;12;10;
76679;PMS5003;65597;51.520;-0.224;2023-05-10T09:32:11;12;11;
76679;PMS5003;65597;51.520;-0.224;2023-05-10T09:34:35;13;11;
76679;PMS5003;65597;51.520;-0.224;2023-05-10T09:37:01;13;12;
76679;PMS5003;65597;51.520;-0.224;2023-05-10T09:39:31;13;10;
76679;PMS5003;65597;51.520;-0.224;2023-05-10T09:41:51;11;8;
76679;PMS5003;65597;51.520;-0.224;2023-05-10T09:44:17;10;9;
76679;PMS5003;65597;51.520;-0.224;2023-05-10T09:46:42;9;9;
76679;PMS5003;65597;51.520;-0.224;2023-05-10T09:49:07;10;9;
76679;PMS5003;65597;51.520;-0.224;2023-05-10T09:51:34;13;11;
76679;PMS5003;65597;51.520;-0.224;2023-05-10T09:56:32;13;12;
76679;PMS5003;65597;51.520;-0.224;2023-05-10T09:58:50;9;9;
76679;PMS5003;65597;51.520;-0.224;2023-05-10T10:01:15;13;11;
76679;PMS5003;65597;51.520;-0.224;2023-05-10T10:03:41;12;10;
76679;PMS5003;65597;51.520;-0.224;2023-05-10T10:06:05;10;9;
76679;PMS5003;65597;51.520;-0.224;2023-05-10T10:08:32;10;10;
76679;PMS5003;65597;51.520;-0.224;2023-05-10T10:10:56;11;9;
76679;PMS5003;65597;51.520;-0.224;2023-05-10T10:13:21;10;9;
76679;PMS5003;65597;51.520;-0.224;2023-05-10T10:15:47;15;11;
76679;PMS5003;65597;51.520;-0.224;2023-05-10T10:18:12;8;7;
76679;PMS5003;65597;51.520;-0.224;2023-05-10T10:20:39;12;11;
76679;PMS5003;65597;51.520;-0.224;2023-05-10T10:23:03;12;10;
76679;PMS5003;65597;51.520;-0.224;2023-05-10T10:25:28;11;10;
76679;PMS5003;65597;51.520;-0.224;2023-05-10T10:27:58;16;12;
76679;PMS5003;65597;51.520;-0.224;2023-05-10T10:30:21;11;9;
76679;PMS5003;65597;51.520;-0.224;2023-05-10T10:32:55;7;7;
76679;PMS5003;65597;51.520;-0.224;2023-05-10T10:35:10;6;6;
76679;PMS5003;65597;51.520;-0.224;2023-05-10T10:37:43;5;5;
76679;PMS5003;65597;51.520;-0.224;2023-05-10T10:40:04;8;8;
76679;PMS5003;65597;51.520;-0.224;2023-05-10T10:47:22;11;10;
76679;PMS5003;65597;51.520;-0.224;2023-05-10T10:49:42;9;8;
76679;PMS5003;65597;51.520;-0.224;2023-05-10T10:52:13;7;7;
76679;PMS5003;65597;51.520;-0.224;2023-05-10T10:54:33;9;6;
76679;PMS5003;65597;51.520;-0.224;2023-05-10T10:57:10;7;6;
76679;PMS5003;65597;51.520;-0.224;2023-05-10T10:59:26;7;6;
76679;PMS5003;65597;51.520;-0.224;2023-05-10T11:01:51;5;5;
76679;PMS5003;65597;51.520;-0.224;2023-05-10T11:04:17;8;6;
76679;PMS5003;65597;51.520;-0.224;2023-05-10T11:06:39;5;5;
76679;PMS5003;65597;51.520;-0.224;2023-05-10T11:09:05;5;4;
76679;PMS5003;65597;51.520;-0.224;2023-05-10T11:11:30;5;5;
76679;PMS5003;65597;51.520;-0.224;2023-05-10T11:13:55;5;4;
76679;PMS5003;65597;51.520;-0.224;2023-05-10T11:16:21;6;5;
76679;PMS5003;65597;51.520;-0.224;2023-05-10T11:18:52;4;3;
76679;PMS5003;65597;51.520;-0.224;2023-05-10T11:21:11;6;5;
76679;PMS5003;65597;51.520;-0.224;2023-05-10T11:23:47;5;5;
76679;PMS5003;65597;51.520;-0.224;2023-05-10T11:26:02;5;5;
76679;PMS5003;65597;51.520;-0.224;2023-05-10T11:28:27;7;6;
76679;PMS5003;65597;51.520;-0.224;2023-05-10T11:30:53;5;5;
76679;PMS5003;65597;51.520;-0.224;2023-05-10T11:33:20;5;4;
76679;PMS5003;65597;51.520;-0.224;2023-05-10T11:35:43;7;6;
76679;PMS5003;65597;51.520;-0.224;2023-05-10T11:38:09;3;3;
76679;PMS5003;65597;51.520;-0.224;2023-05-10T11:40:35;8;7;
76679;PMS5003;65597;51.520;-0.224;2023-05-10T11:43:00;7;6;
76679;PMS5003;65597;51.520;-0.224;2023-05-10T11:45:26;10;8;
76679;PMS5003;65597;51.520;-0.224;2023-05-10T11:47:50;5;5;
76679;PMS5003;65597;51.520;-0.224;2023-05-10T11:50:21;4;4;
76679;PMS5003;65597;51.520;-0.224;2023-05-10T11:52:41;3;3;
76679;PMS5003;65597;51.520;-0.224;2023-05-10T11:55:07;4;4;
76679;PMS5003;65597;51.520;-0.224;2023-05-10T11:57:32;5;4;
76679;PMS5003;65597;51.520;-0.224;2023-05-10T11:59:57;6;6;
76679;PMS5003;65597;51.520;-0.224;2023-05-10T12:02:23;7;7;
76679;PMS5003;65597;51.520;-0.224;2023-05-10T12:04:48;6;6;
76679;PMS5003;65597;51.520;-0.224;2023-05-10T12:07:13;9;7;
76679;PMS5003;65597;51.520;-0.224;2023-05-10T12:09:42;5;5;
76679;PMS5003;65597;51.520;-0.224;2023-05-10T12:12:04;6;3;
76679;PMS5003;65597;51.520;-0.224;2023-05-10T12:14:29;4;3;
76679;PMS5003;65597;51.520;-0.224;2023-05-10T12:16:56;1;1;
76679;PMS5003;65597;51.520;-0.224;2023-05-10T12:19:20;4;3;
76679;PMS5003;65597;51.520;-0.224;2023-05-10T12:21:45;5;4;
76679;PMS5003;65597;51.520;-0.224;2023-05-10T12:24:10;3;3;
76679;PMS5003;65597;51.520;-0.224;2023-05-10T12:26:36;5;5;
76679;PMS5003;65597;51.520;-0.224;2023-05-10T12:29:11;5;4;
76679;PMS5003;65597;51.520;-0.224;2023-05-10T12:31:26;5;5;
76679;PMS5003;65597;51.520;-0.224;2023-05-10T12:33:52;8;7;
76679;PMS5003;65597;51.520;-0.224;2023-05-10T12:36:22;4;4;
76679;PMS5003;65597;51.520;-0.224;2023-05-10T12:38:43;2;2;
76679;PMS5003;65597;51.520;-0.224;2023-05-10T12:41:09;2;2;
76679;PMS5003;65597;51.520;-0.224;2023-05-10T12:43:34;4;4;
76679;PMS5003;65597;51.520;-0.224;2023-05-10T12:46:04;4;3;
76679;PMS5003;65597;51.520;-0.224;2023-05-10T12:48:24;4;3;
76679;PMS5003;65597;51.520;-0.224;2023-05-10T12:50:49;5;5;
76679;PMS5003;65597;51.520;-0.224;2023-05-10T12:53:15;6;5;
76679;PMS5003;65597;51.520;-0.224;2023-05-10T12:55:40;8;7;
76679;PMS5003;65597;51.520;-0.224;2023-05-10T12:58:07;5;5;
76679;PMS5003;65597;51.520;-0.224;2023-05-10T13:00:31;7;7;
76679;PMS5003;65597;51.520;-0.224;2023-05-10T13:02:56;6;6;
76679;PMS5003;65597;51.520;-0.224;2023-05-10T13:05:21;8;7;
76679;PMS5003;65597;51.520;-0.224;2023-05-10T13:07:47;8;7;
76679;PMS5003;65597;51.520;-0.224;2023-05-10T13:10:12;9;8;
76679;PMS5003;65597;51.520;-0.224;2023-05-10T13:12:37;6;6;
76679;PMS5003;65597;51.520;-0.224;2023-05-10T13:15:03;8;8;
76679;PMS5003;65597;51.520;-0.224;2023-05-10T13:17:28;11;10;
76679;PMS5003;65597;51.520;-0.224;2023-05-10T13:19:53;10;9;
76679;PMS5003;65597;51.520;-0.224;2023-05-10T13:22:19;7;7;
76679;PMS5003;65597;51.520;-0.224;2023-05-10T13:24:44;5;5;
76679;PMS5003;65597;51.520;-0.224;2023-05-10T13:27:09;7;6;
76679;PMS5003;65597;51.520;-0.224;2023-05-10T13:29:35;6;5;
76679;PMS5003;65597;51.520;-0.224;2023-05-10T13:32:00;5;5;
76679;PMS5003;65597;51.520;-0.224;2023-05-10T13:34:26;8;6;
76679;PMS5003;65597;51.520;-0.224;2023-05-10T13:36:50;8;7;
76679;PMS5003;65597;51.520;-0.224;2023-05-10T13:39:16;5;3;
76679;PMS5003;65597;51.520;-0.224;2023-05-10T13:41:41;4;4;
76679;PMS5003;65597;51.520;-0.224;2023-05-10T13:44:07;3;3;
76679;PMS5003;65597;51.520;-0.224;2023-05-10T13:46:33;5;4;
76679;PMS5003;65597;51.520;-0.224;2023-05-10T13:48:57;3;3;
76679;PMS5003;65597;51.520;-0.224;2023-05-10T13:51:23;1;1;
76679;PMS5003;65597;51.520;-0.224;2023-05-10T13:53:48;4;4;
76679;PMS5003;65597;51.520;-0.224;2023-05-10T13:56:13;4;3;
76679;PMS5003;65597;51.520;-0.224;2023-05-10T13:58:40;2;2;
76679;PMS5003;65597;51.520;-0.224;2023-05-10T14:01:04;2;1;
76679;PMS5003;65597;51.520;-0.224;2023-05-10T14:03:29;2;2;
76679;PMS5003;65597;51.520;-0.224;2023-05-10T14:05:56;1;0;
76679;PMS5003;65597;51.520;-0.224;2023-05-10T14:08:20;3;3;
76679;PMS5003;65597;51.520;-0.224;2023-05-10T14:10:47;3;2;
76679;PMS5003;65597;51.520;-0.224;2023-05-10T14:13:11;3;2;
76679;PMS5003;65597;51.520;-0.224;2023-05-10T14:15:36;4;3;
76679;PMS5003;65597;51.520;-0.224;2023-05-10T14:18:02;2;1;
76679;PMS5003;65597;51.520;-0.224;2023-05-10T14:20:27;4;3;
76679;PMS5003;65597;51.520;-0.224;2023-05-10T14:22:52;3;2;
76679;PMS5003;65597;51.520;-0.224;2023-05-10T14:25:17;2;2;
76679;PMS5003;65597;51.520;-0.224;2023-05-10T14:27:48;4;3;
76679;PMS5003;65597;51.520;-0.224;2023-05-10T14:30:09;4;4;
76679;PMS5003;65597;51.520;-0.224;2023-05-10T14:32:34;2;2;
76679;PMS5003;65597;51.520;-0.224;2023-05-10T14:34:59;3;3;
76679;PMS5003;65597;51.520;-0.224;2023-05-10T14:37:24;3;2;
76679;PMS5003;65597;51.520;-0.224;2023-05-10T14:39:50;3;3;
76679;PMS5003;65597;51.520;-0.224;2023-05-10T14:42:15;2;2;
76679;PMS5003;65597;51.520;-0.224;2023-05-10T14:44:40;4;3;
76679;PMS5003;65597;51.520;-0.224;2023-05-10T14:47:06;2;2;
76679;PMS5003;65597;51.520;-0.224;2023-05-10T14:49:31;4;4;
76679;PMS5003;65597;51.520;-0.224;2023-05-10T14:51:56;3;3;
76679;PMS5003;65597;51.520;-0.224;2023-05-10T14:54:22;4;4;
76679;PMS5003;65597;51.520;-0.224;2023-05-10T14:56:47;3;3;
76679;PMS5003;65597;51.520;-0.224;2023-05-10T14:59:12;3;3;
76679;PMS5003;65597;51.520;-0.224;2023-05-10T15:01:37;4;4;
76679;PMS5003;65597;51.520;-0.224;2023-05-10T15:04:03;3;3;
76679;PMS5003;65597;51.520;-0.224;2023-05-10T15:06:30;3;3;
76679;PMS5003;65597;51.520;-0.224;2023-05-10T15:08:53;4;3;
76679;PMS5003;65597;51.520;-0.224;2023-05-10T15:11:18;7;7;
76679;PMS5003;65597;51.520;-0.224;2023-05-10T15:13:44;4;3;
76679;PMS5003;65597;51.520;-0.224;2023-05-10T15:16:09;5;4;
76679;PMS5003;65597;51.520;-0.224;2023-05-10T15:18:34;5;4;
76679;PMS5003;65597;51.520;-0.224;2023-05-10T15:21:00;5;4;
76679;PMS5003;65597;51.520;-0.224;2023-05-10T15:23:27;5;4;
76679;PMS5003;65597;51.520;-0.224;2023-05-10T15:25:50;3;3;
76679;PMS5003;65597;51.520;-0.224;2023-05-10T15:28:16;3;3;
76679;PMS5003;65597;51.520;-0.224;2023-05-10T15:30:41;3;2;
76679;PMS5003;65597;51.520;-0.224;2023-05-10T15:33:06;3;3;
76679;PMS5003;65597;51.520;-0.224;2023-05-10T15:35:33;5;4;
76679;PMS5003;65597;51.520;-0.224;2023-05-10T15:37:57;4;4;
76679;PMS5003;65597;51.520;-0.224;2023-05-10T15:40:22;3;3;
76679;PMS5003;65597;51.520;-0.224;2023-05-10T15:42:48;4;4;
76679;PMS5003;65597;51.520;-0.224;2023-05-10T15:45:13;4;4;
76679;PMS5003;65597;51.520;-0.224;2023-05-10T15:47:39;6;4;
76679;PMS5003;65597;51.520;-0.224;2023-05-10T15:50:05;4;3;
76679;PMS5003;65597;51.520;-0.224;2023-05-10T15:52:29;4;2;
76679;PMS5003;65597;51.520;-0.224;2023-05-10T15:54:55;4;4;
76679;PMS5003;65597;51.520;-0.224;2023-05-10T15:57:20;4;4;
76679;PMS5003;65597;51.520;-0.224;2023-05-10T15:59:46;4;4;
76679;PMS5003;65597;51.520;-0.224;2023-05-10T16:02:11;4;4;
76679;PMS5003;65597;51.520;-0.224;2023-05-10T16:04:36;5;5;
76679;PMS5003;65597;51.520;-0.224;2023-05-10T16:07:01;7;6;
76679;PMS5003;65597;51.520;-0.224;2023-05-10T16:09:26;4;3;
76679;PMS5003;65597;51.520;-0.224;2023-05-10T16:11:52;5;5;
76679;PMS5003;65597;51.520;-0.224;2023-05-10T16:14:17;6;5;
76679;PMS5003;65597;51.520;-0.224;2023-05-10T16:16:42;6;6;
76679;PMS5003;65597;51.520;-0.224;2023-05-10T16:19:08;7;6;
76679;PMS5003;65597;51.520;-0.224;2023-05-10T16:21:33;9;6;
76679;PMS5003;65597;51.520;-0.224;2023-05-10T16:24:01;3;3;
76679;PMS5003;65597;51.520;-0.224;2023-05-10T16:26:24;6;5;
76679;PMS5003;65597;51.520;-0.224;2023-05-10T16:28:49;4;3;